Time;durP1;ratioP1;P1;durP2;ratioP2;P2;SDS_P1;SDS_P2;PMS_P1;PMS_P2;Temp;Humidity;BMP_temperature;BMP_pressure;BME280_temperature;BME280_humidity;BME280_pressure;Samples;Min_cycle;Max_cycle;Signal;HPM_P1;HPM_P2
2024/03/05 00:00:37;;;;;;;17.60;12.20;;;;;;;2.10;80.62;101371.61;109102;1253;138717;-60
2024/03/05 00:03:23;;;;;;;19.00;12.00;;;;;;;2.13;80.70;101372.45;109184;1253;75723;-63
2024/03/05 00:05:50;;;;;;;18.00;11.70;;;;;;;2.15;80.74;101374.89;109238;1256;66573;-64
2024/03/05 00:08:17;;;;;;;19.80;12.00;;;;;;;2.19;80.88;101375.30;109027;1255;138052;-63
2024/03/05 00:10:43;;;;;;;17.40;13.00;;;;;;;2.23;80.89;101375.38;109204;1256;58965;-64
2024/03/05 00:13:10;;;;;;;22.10;12.30;;;;;;;2.31;80.91;101378.36;108940;1255;138631;-64
2024/03/05 00:15:37;;;;;;;17.60;13.00;;;;;;;2.39;81.10;101381.36;109186;1256;73044;-64
2024/03/05 00:18:04;;;;;;;18.10;12.80;;;;;;;2.49;81.13;101382.03;109169;1253;139265;-64
2024/03/05 00:20:34;;;;;;;16.90;12.70;;;;;;;2.62;80.99;101379.92;107216;1260;71270;-60
2024/03/05 00:23:01;;;;;;;21.50;13.40;;;;;;;2.73;80.75;101384.65;104952;1256;61370;-60
2024/03/05 00:25:28;;;;;;;17.30;12.80;;;;;;;2.81;80.77;101383.78;104686;1256;138404;-60
2024/03/05 00:27:54;;;;;;;19.40;13.20;;;;;;;2.88;80.72;101388.77;105001;1258;74812;-60
2024/03/05 00:30:22;;;;;;;17.80;13.00;;;;;;;2.94;80.58;101391.95;104831;1258;139118;-60
2024/03/05 00:32:49;;;;;;;22.70;14.40;;;;;;;2.98;80.56;101384.39;104978;1257;73984;-60
2024/03/05 00:35:15;;;;;;;18.60;14.10;;;;;;;3.01;80.32;101390.36;109135;1255;59098;-60
2024/03/05 00:37:42;;;;;;;19.50;14.40;;;;;;;3.03;80.21;101385.61;109052;1254;138444;-60
2024/03/05 00:40:09;;;;;;;22.00;14.00;;;;;;;3.04;80.17;101382.70;109210;1257;73657;-60
2024/03/05 00:42:36;;;;;;;20.60;14.50;;;;;;;3.05;80.02;101384.86;108930;1256;139006;-60
2024/03/05 00:45:06;;;;;;;23.20;15.30;;;;;;;3.05;80.03;101383.16;109004;1256;73300;-61
2024/03/05 00:47:33;;;;;;;21.40;14.30;;;;;;;3.06;79.78;101382.14;109087;1254;59001;-60
2024/03/05 00:50:03;;;;;;;22.30;15.20;;;;;;;3.08;79.84;101381.56;105021;1258;138646;-59
2024/03/05 00:52:31;;;;;;;22.80;16.60;;;;;;;3.10;79.68;101384.50;109108;1256;74782;-60
2024/03/05 00:54:57;;;;;;;20.90;15.10;;;;;;;3.11;79.67;101382.13;108928;1255;139091;-60
2024/03/05 00:57:24;;;;;;;22.70;16.30;;;;;;;3.14;79.57;101386.11;109221;1254;70919;-60
2024/03/05 00:59:53;;;;;;;18.60;14.50;;;;;;;3.17;79.54;101381.98;109231;1254;59170;-60
2024/03/05 01:02:21;;;;;;;21.60;14.90;;;;;;;3.19;79.37;101380.26;109178;1255;60640;-60
2024/03/05 01:04:49;;;;;;;22.00;15.10;;;;;;;3.18;79.35;101382.09;109134;1255;73279;-60
2024/03/05 01:07:16;;;;;;;23.70;15.60;;;;;;;3.18;79.27;101379.43;109028;1254;138347;-60
2024/03/05 01:09:43;;;;;;;20.40;14.30;;;;;;;3.19;79.25;101382.46;109033;1256;72724;-60
2024/03/05 01:12:10;;;;;;;20.90;15.00;;;;;;;3.21;79.13;101377.61;109118;1253;138624;-60
2024/03/05 01:14:36;;;;;;;21.30;14.00;;;;;;;3.25;79.24;101377.14;109172;1254;59190;-60
2024/03/05 01:17:04;;;;;;;27.10;15.80;;;;;;;3.28;79.16;101379.03;109184;1254;75758;-58
2024/03/05 01:19:32;;;;;;;20.90;15.00;;;;;;;3.30;79.00;101375.39;109076;1256;138241;-59
2024/03/05 01:21:58;;;;;;;23.60;14.60;;;;;;;3.31;78.88;101371.47;109138;1255;72740;-60
2024/03/05 01:24:25;;;;;;;20.30;14.50;;;;;;;3.31;78.87;101371.09;109006;1254;138619;-60
2024/03/05 01:26:53;;;;;;;29.20;14.50;;;;;;;3.33;78.88;101367.42;107096;1258;61332;-61
2024/03/05 01:29:21;;;;;;;20.10;13.10;;;;;;;3.37;78.92;101366.23;106542;1254;75392;-60
2024/03/05 01:31:56;;;;;;;22.70;14.50;;;;;;;3.37;78.84;101365.92;109071;1253;139621;-60
2024/03/05 01:34:23;;;;;;;25.10;14.20;;;;;;;3.36;78.96;101362.23;108989;1256;74235;-60
2024/03/05 01:36:50;;;;;;;21.00;15.00;;;;;;;3.41;79.07;101364.23;109066;1254;138489;-62
2024/03/05 01:39:21;;;;;;;22.90;15.30;;;;;;;3.43;79.04;101366.63;109272;1254;60516;-60
2024/03/05 01:41:48;;;;;;;21.20;15.20;;;;;;;3.44;79.02;101368.30;109205;1256;73806;-60
2024/03/05 01:44:15;;;;;;;22.30;14.60;;;;;;;3.45;78.79;101369.58;109062;1257;139433;-60
2024/03/05 01:46:41;;;;;;;19.30;13.90;;;;;;;3.45;78.79;101369.53;109175;1255;72523;-61
2024/03/05 01:49:08;;;;;;;21.00;13.80;;;;;;;3.45;78.82;101368.33;109095;1254;138411;-60
2024/03/05 01:51:35;;;;;;;19.10;13.80;;;;;;;3.45;78.70;101368.92;109036;1254;59183;-59
2024/03/05 01:54:01;;;;;;;19.40;13.20;;;;;;;3.48;78.62;101373.38;108957;1254;138878;-60
2024/03/05 01:56:28;;;;;;;18.30;13.80;;;;;;;3.50;78.67;101375.61;109005;1254;67489;-60
2024/03/05 01:58:54;;;;;;;17.70;13.00;;;;;;;3.51;78.82;101373.25;109008;1255;72812;-60
2024/03/05 02:01:21;;;;;;;17.10;12.60;;;;;;;3.52;78.59;101373.30;108872;1255;138470;-59
2024/03/05 02:03:48;;;;;;;21.00;13.40;;;;;;;3.53;78.42;101375.59;109143;1253;59964;-63
2024/03/05 02:06:15;;;;;;;19.30;13.80;;;;;;;3.55;78.45;101372.23;109118;1254;139259;-60
2024/03/05 02:08:41;;;;;;;17.50;13.10;;;;;;;3.56;78.49;101377.53;108937;1256;65555;-59
2024/03/05 02:11:08;;;;;;;20.00;13.70;;;;;;;3.56;78.21;101376.47;109151;1258;71771;-60
2024/03/05 02:13:37;;;;;;;22.00;13.70;;;;;;;3.54;78.22;101379.30;106833;1254;137742;-59
2024/03/05 02:16:05;;;;;;;22.70;13.20;;;;;;;3.52;78.25;101378.83;104897;1260;61596;-59
2024/03/05 02:18:32;;;;;;;19.40;13.20;;;;;;;3.47;78.14;101376.80;104981;1257;139016;-60
2024/03/05 02:21:03;;;;;;;17.30;12.80;;;;;;;3.43;78.06;101376.36;109015;1258;67286;-60
2024/03/05 02:23:29;;;;;;;20.40;12.10;;;;;;;3.39;77.96;101380.59;108957;1257;73340;-60
2024/03/05 02:25:56;;;;;;;18.40;12.40;;;;;;;3.36;78.00;101379.40;109120;1254;138358;-61
2024/03/05 02:28:23;;;;;;;16.00;11.70;;;;;;;3.36;77.95;101381.44;109174;1253;61271;-60
2024/03/05 02:30:49;;;;;;;16.20;11.60;;;;;;;3.37;78.03;101381.34;109100;1258;138769;-60
2024/03/05 02:33:16;;;;;;;23.30;13.10;;;;;;;3.38;78.04;101381.09;108994;1254;65853;-60
2024/03/05 02:35:44;;;;;;;17.40;12.00;;;;;;;3.37;77.99;101384.17;109111;1254;72893;-60
2024/03/05 02:38:11;;;;;;;16.70;12.40;;;;;;;3.38;77.92;101383.34;109056;1254;138365;-60
2024/03/05 02:40:38;;;;;;;16.00;11.20;;;;;;;3.39;77.90;101383.41;109216;1254;58906;-60
2024/03/05 02:43:06;;;;;;;17.10;12.20;;;;;;;3.40;77.90;101380.67;108905;1254;139044;-60
2024/03/05 02:45:33;;;;;;;18.70;12.40;;;;;;;3.41;77.86;101383.51;109197;1257;65213;-60
2024/03/05 02:48:04;;;;;;;17.50;11.80;;;;;;;3.41;77.78;101384.05;109087;1259;139837;-60
2024/03/05 02:50:30;;;;;;;16.00;11.60;;;;;;;3.40;77.85;101383.67;109188;1254;58991;-60
2024/03/05 02:52:57;;;;;;;17.50;12.30;;;;;;;3.41;77.89;101384.37;109127;1254;59618;-60
2024/03/05 02:55:24;;;;;;;18.70;12.70;;;;;;;3.38;77.96;101381.77;109067;1258;138343;-60
2024/03/05 02:57:50;;;;;;;17.70;12.10;;;;;;;3.40;78.05;101387.27;109029;1254;67313;-60
2024/03/05 03:00:20;;;;;;;17.80;12.80;;;;;;;3.41;77.89;101389.61;109117;1254;138364;-60
2024/03/05 03:02:49;;;;;;;16.10;12.60;;;;;;;3.42;78.10;101386.20;108440;1258;61299;-60
2024/03/05 03:05:17;;;;;;;18.70;13.50;;;;;;;3.43;78.04;101385.89;105052;1258;61251;-60
2024/03/05 03:07:44;;;;;;;17.10;13.00;;;;;;;3.46;78.10;101384.86;108996;1260;138484;-60
2024/03/05 03:10:13;;;;;;;16.60;13.70;;;;;;;3.48;78.11;101381.58;109203;1259;66831;-60
2024/03/05 03:12:40;;;;;;;22.80;14.10;;;;;;;3.49;78.24;101383.88;108987;1254;137829;-60
2024/03/05 03:15:07;;;;;;;21.90;14.40;;;;;;;3.51;78.10;101386.42;109045;1255;59031;-60
2024/03/05 03:17:35;;;;;;;20.60;14.50;;;;;;;3.49;78.03;101390.50;109012;1259;61855;-61
2024/03/05 03:20:03;;;;;;;21.80;14.10;;;;;;;3.48;78.10;101387.63;108911;1254;138821;-60
2024/03/05 03:22:30;;;;;;;21.40;13.80;;;;;;;3.48;78.14;101387.29;108865;1261;67581;-61
2024/03/05 03:24:59;;;;;;;22.40;14.80;;;;;;;3.46;78.19;101394.81;108804;1254;138838;-60
2024/03/05 03:27:26;;;;;;;22.50;14.80;;;;;;;3.46;78.10;101392.20;104839;1259;61221;-60
2024/03/05 03:29:53;;;;;;;22.00;15.30;;;;;;;3.45;78.17;101396.64;105075;1267;61230;-60
2024/03/05 03:32:20;;;;;;;23.90;15.20;;;;;;;3.43;78.12;101395.14;104997;1258;75073;-60
2024/03/05 03:34:46;;;;;;;24.60;15.10;;;;;;;3.42;78.32;101395.23;105004;1255;66654;-59
2024/03/05 03:37:13;;;;;;;24.40;15.50;;;;;;;3.41;78.35;101401.05;104872;1254;138418;-59
2024/03/05 03:39:43;;;;;;;24.70;15.40;;;;;;;3.41;78.31;101400.51;104865;1253;61344;-58
2024/03/05 03:42:12;;;;;;;27.40;16.10;;;;;;;3.39;78.29;101399.17;104860;1258;138962;-59
2024/03/05 03:44:39;;;;;;;25.90;15.90;;;;;;;3.37;78.47;101402.52;104866;1255;75017;-59
2024/03/05 03:47:06;;;;;;;25.80;15.50;;;;;;;3.36;78.40;101398.81;104772;1259;67415;-59
2024/03/05 03:49:33;;;;;;;24.10;16.20;;;;;;;3.36;78.53;101402.43;104668;1256;138606;-59
2024/03/05 03:52:00;;;;;;;26.90;15.20;;;;;;;3.35;78.47;101402.04;105013;1257;61378;-59
2024/03/05 03:54:26;;;;;;;25.70;15.80;;;;;;;3.33;78.43;101402.45;104907;1257;138733;-60
2024/03/05 03:56:53;;;;;;;25.60;16.30;;;;;;;3.31;78.52;101405.45;104858;1254;75605;-60
2024/03/05 03:59:20;;;;;;;22.90;15.30;;;;;;;3.29;78.53;101405.16;104969;1254;65462;-59
2024/03/05 04:01:47;;;;;;;26.60;14.60;;;;;;;3.29;78.61;101403.92;104844;1259;139027;-60
2024/03/05 04:04:14;;;;;;;24.10;15.20;;;;;;;3.27;78.68;101407.11;109135;1254;59212;-60
2024/03/05 04:06:42;;;;;;;24.00;14.90;;;;;;;3.26;78.65;101403.54;109047;1255;138564;-61
2024/03/05 04:09:08;;;;;;;19.90;14.60;;;;;;;3.27;78.77;101405.91;109175;1254;75066;-61
2024/03/05 04:11:36;;;;;;;24.10;14.50;;;;;;;3.30;78.71;101408.52;109148;1253;66137;-61
2024/03/05 04:14:03;;;;;;;23.20;14.80;;;;;;;3.34;78.81;101405.59;109025;1254;138895;-61
2024/03/05 04:16:29;;;;;;;18.80;13.90;;;;;;;3.38;78.77;101411.45;109136;1254;59492;-60
2024/03/05 04:18:59;;;;;;;22.30;14.30;;;;;;;3.41;78.65;101409.54;108885;1254;138756;-59
2024/03/05 04:21:26;;;;;;;21.20;13.70;;;;;;;3.41;78.57;101407.64;109204;1253;74758;-59
2024/03/05 04:23:53;;;;;;;22.50;14.10;;;;;;;3.45;78.60;101410.31;109115;1253;64272;-59
2024/03/05 04:26:26;;;;;;;21.60;13.60;;;;;;;3.46;78.59;101413.00;108982;1254;138331;-59
2024/03/05 04:28:54;;;;;;;;;;;;;;;3.48;78.74;101411.55;108657;1254;61190;-59
2024/03/05 04:31:30;;;;;;;25.70;15.10;;;;;;;3.49;78.58;101408.84;104960;1258;124633;-58
2024/03/05 04:34:00;;;;;;;23.10;14.70;;;;;;;3.50;78.72;101407.39;105116;1257;74537;-60
2024/03/05 04:36:27;;;;;;;22.20;14.10;;;;;;;3.54;78.80;101409.14;104954;1254;138691;-60
2024/03/05 04:38:54;;;;;;;23.20;16.60;;;;;;;3.56;78.74;101415.52;104897;1259;73518;-61
2024/03/05 04:41:20;;;;;;;29.30;17.00;;;;;;;3.56;78.72;101416.95;105051;1258;61236;-60
2024/03/05 04:43:48;;;;;;;25.60;15.50;;;;;;;3.55;78.89;101416.52;104968;1261;138169;-60
2024/03/05 04:46:15;;;;;;;25.50;17.50;;;;;;;3.54;78.80;101414.52;105096;1257;74198;-60
2024/03/05 04:48:42;;;;;;;26.70;16.30;;;;;;;3.51;78.95;101413.85;104902;1254;137735;-60
2024/03/05 04:51:09;;;;;;;30.50;17.70;;;;;;;3.52;78.94;101410.04;105056;1255;71982;-60
2024/03/05 04:53:36;;;;;;;25.50;17.10;;;;;;;3.50;78.95;101409.98;104992;1257;61183;-61
2024/03/05 04:56:03;;;;;;;24.80;16.50;;;;;;;3.49;78.94;101406.78;104848;1257;138436;-62
2024/03/05 04:58:30;;;;;;;27.70;17.10;;;;;;;3.46;79.15;101404.33;106381;1257;73881;-60
2024/03/05 05:00:57;;;;;;;28.10;16.70;;;;;;;3.44;78.99;101408.02;104913;1260;138556;-60
2024/03/05 05:03:24;;;;;;;27.50;15.90;;;;;;;3.42;79.09;101406.52;104976;1258;72137;-58
2024/03/05 05:05:53;;;;;;;25.40;16.90;;;;;;;3.40;78.99;101405.35;104957;1257;61351;-61
2024/03/05 05:08:20;;;;;;;24.60;16.60;;;;;;;3.38;79.05;101408.50;109054;1254;60083;-62
2024/03/05 05:10:47;;;;;;;28.20;17.30;;;;;;;3.38;79.14;101408.00;109121;1254;73808;-62
2024/03/05 05:13:14;;;;;;;24.30;16.40;;;;;;;3.39;79.18;101409.44;109069;1254;140337;-62
2024/03/05 05:15:41;;;;;;;27.10;14.70;;;;;;;3.41;79.45;101409.89;106355;1261;72558;-62
2024/03/05 05:18:09;;;;;;;30.60;17.10;;;;;;;3.43;79.25;101411.92;108870;1254;139244;-61
2024/03/05 05:20:35;;;;;;;25.80;16.20;;;;;;;3.46;79.36;101416.98;109177;1254;59105;-61
2024/03/05 05:23:03;;;;;;;29.20;17.10;;;;;;;3.50;79.40;101420.73;109121;1254;74191;-61
2024/03/05 05:25:30;;;;;;;23.30;15.70;;;;;;;3.54;79.54;101420.61;109035;1254;139133;-62
2024/03/05 05:27:57;;;;;;;29.80;16.50;;;;;;;3.55;79.28;101425.19;108696;1254;71736;-61
2024/03/05 05:30:23;;;;;;;24.50;15.80;;;;;;;3.57;79.42;101419.41;104848;1254;139898;-61
2024/03/05 05:32:50;;;;;;;30.10;18.20;;;;;;;3.60;79.47;101426.91;105075;1254;61171;-61
2024/03/05 05:35:17;;;;;;;24.80;16.20;;;;;;;3.63;79.67;101419.45;105002;1257;73846;-61
2024/03/05 05:37:44;;;;;;;25.80;15.90;;;;;;;3.66;79.54;101417.38;104810;1258;138916;-60
2024/03/05 05:40:13;;;;;;;22.10;16.30;;;;;;;3.68;79.70;101421.70;104949;1259;73230;-62
2024/03/05 05:42:39;;;;;;;34.50;17.80;;;;;;;3.70;79.68;101422.32;104830;1255;138677;-61
2024/03/05 05:45:11;;;;;;;28.80;18.70;;;;;;;3.69;79.63;101421.05;104954;1257;61298;-58
2024/03/05 05:47:57;;;;;;;31.20;19.50;;;;;;;3.70;79.71;101414.55;105755;1256;74922;-59
2024/03/05 05:50:28;;;;;;;27.70;18.90;;;;;;;3.71;79.68;101415.98;104945;1257;66286;-60
2024/03/05 05:52:55;;;;;;;32.40;18.00;;;;;;;3.70;79.53;101428.73;104909;1254;73276;-61
2024/03/05 05:55:25;;;;;;;30.60;19.30;;;;;;;3.67;79.75;101424.39;104857;1254;139273;-60
2024/03/05 05:57:52;;;;;;;32.20;19.10;;;;;;;3.64;79.65;101421.59;105038;1254;61221;-61
2024/03/05 06:00:24;;;;;;;31.40;18.90;;;;;;;3.61;79.73;101422.33;104824;1257;138693;-60
2024/03/05 06:02:56;;;;;;;32.50;18.00;;;;;;;3.61;79.79;101421.23;108955;1254;64687;-62
2024/03/05 06:05:26;;;;;;;25.10;17.90;;;;;;;3.58;79.87;101424.02;109102;1253;72766;-61
2024/03/05 06:07:53;;;;;;;27.50;18.20;;;;;;;3.59;79.99;101428.77;109002;1254;138839;-62
2024/03/05 06:10:22;;;;;;;29.80;18.30;;;;;;;3.60;79.95;101424.81;109134;1254;60077;-64
2024/03/05 06:12:48;;;;;;;36.20;20.30;;;;;;;3.62;80.00;101428.60;108979;1254;138529;-64
2024/03/05 06:15:18;;;;;;;37.40;21.40;;;;;;;3.63;79.98;101420.72;108960;1254;66030;-64
2024/03/05 06:17:45;;;;;;;31.90;19.40;;;;;;;3.66;80.01;101421.77;109082;1254;72795;-64
2024/03/05 06:20:13;;;;;;;33.80;19.80;;;;;;;3.69;80.09;101425.03;108813;1254;139459;-64
2024/03/05 06:22:40;;;;;;;30.30;19.30;;;;;;;3.72;80.07;101427.14;109121;1257;59319;-64
2024/03/05 06:25:08;;;;;;;33.60;19.00;;;;;;;3.74;80.08;101428.64;106995;1257;138726;-68
2024/03/05 06:27:36;;;;;;;33.00;19.00;;;;;;;3.76;80.03;101428.42;104989;1253;65816;-66
2024/03/05 06:30:17;;;;;;;31.80;18.20;;;;;;;3.79;80.12;101427.26;104833;1257;138831;-67
2024/03/05 06:32:47;;;;;;;31.10;18.10;;;;;;;3.82;80.09;101425.84;105738;1254;61389;-66
2024/03/05 06:35:17;;;;;;;28.10;17.90;;;;;;;3.84;80.00;101427.77;105549;1258;61172;-66
2024/03/05 06:37:46;;;;;;;30.10;16.30;;;;;;;3.86;79.94;101430.27;104934;1257;138341;-66
2024/03/05 06:40:15;;;;;;;29.40;17.10;;;;;;;3.88;80.11;101430.26;107450;1253;66475;-67
2024/03/05 06:42:43;;;;;;;34.80;18.40;;;;;;;3.92;80.04;101434.48;106369;1255;139128;-67
2024/03/05 06:45:14;;;;;;;32.60;17.70;;;;;;;3.95;79.99;101432.24;104919;1260;61364;-67
2024/03/05 06:47:54;;;;;;;33.60;17.90;;;;;;;3.98;79.88;101430.52;104928;1254;61231;-67
2024/03/05 06:50:23;;;;;;;28.80;17.70;;;;;;;4.02;79.98;101430.78;104775;1259;138477;-67
2024/03/05 06:58:22;;;;;;;29.20;17.80;;;;;;;4.07;79.84;101426.02;104829;1260;61308;-67
2024/03/05 07:00:49;;;;;;;31.10;18.00;;;;;;;4.07;79.79;101426.93;104850;1257;138728;-67
2024/03/05 07:03:16;;;;;;;23.70;16.40;;;;;;;4.07;79.82;101425.88;104987;1257;75513;-67
2024/03/05 07:05:43;;;;;;;30.30;18.00;;;;;;;4.08;79.72;101425.23;104871;1258;67334;-67
2024/03/05 07:08:09;;;;;;;30.10;18.10;;;;;;;4.10;79.69;101420.52;104782;1256;139090;-67
2024/03/05 07:10:37;;;;;;;28.50;16.90;;;;;;;4.16;79.81;101420.67;105104;1254;61190;-67
2024/03/05 07:13:04;;;;;;;32.40;18.00;;;;;;;4.21;79.81;101426.90;104864;1257;138531;-67
2024/03/05 07:15:31;;;;;;;30.80;19.20;;;;;;;4.21;79.68;101426.90;104919;1254;74878;-67
2024/03/05 07:17:57;;;;;;;29.50;16.70;;;;;;;4.21;79.66;101426.35;104969;1257;67346;-66
2024/03/05 07:20:27;;;;;;;28.60;17.80;;;;;;;4.21;79.63;101430.38;104876;1254;74326;-66
2024/03/05 07:22:54;;;;;;;24.80;16.40;;;;;;;4.23;79.60;101429.30;104991;1257;61234;-67
2024/03/05 07:25:22;;;;;;;28.30;15.00;;;;;;;4.21;79.48;101432.30;104897;1256;139168;-67
2024/03/05 07:27:49;;;;;;;32.60;18.00;;;;;;;4.18;79.50;101425.48;105402;1257;75384;-67
2024/03/05 07:30:20;;;;;;;29.10;16.90;;;;;;;4.24;79.52;101434.73;104876;1254;138949;-67
2024/03/05 07:32:47;;;;;;;25.70;16.80;;;;;;;4.23;79.34;101434.99;105482;1256;72171;-67
2024/03/05 07:35:15;;;;;;;26.40;15.10;;;;;;;4.20;79.32;101435.36;106114;1254;61304;-67
2024/03/05 07:37:45;;;;;;;26.20;15.80;;;;;;;4.18;79.22;101432.06;104947;1261;139300;-67
2024/03/05 07:40:16;;;;;;;33.20;17.40;;;;;;;4.17;79.25;101430.81;106498;1255;74503;-66
2024/03/05 07:42:47;;;;;;;25.20;16.50;;;;;;;4.18;79.17;101426.34;105999;1256;138883;-66
2024/03/05 07:45:18;;;;;;;24.90;16.30;;;;;;;4.21;79.28;101427.61;106029;1260;73259;-67
2024/03/05 07:47:45;;;;;;;24.80;16.00;;;;;;;4.20;79.15;101422.48;106073;1256;61370;-67
2024/03/05 07:50:12;;;;;;;27.70;16.00;;;;;;;4.20;79.25;101420.56;106329;1258;138358;-67
2024/03/05 07:52:39;;;;;;;25.90;16.00;;;;;;;4.19;79.07;101427.44;104912;1255;74275;-67
2024/03/05 07:55:08;;;;;;;28.20;17.30;;;;;;;4.18;79.09;101429.28;106280;1256;138538;-67
2024/03/05 07:57:39;;;;;;;32.90;15.80;;;;;;;4.18;79.09;101429.13;105674;1254;71449;-67
2024/03/05 08:00:13;;;;;;;27.60;17.40;;;;;;;4.16;79.15;101428.36;106592;1257;139202;-66
2024/03/05 08:02:41;;;;;;;25.50;16.30;;;;;;;4.14;79.17;101429.60;105492;1257;62002;-66
2024/03/05 08:05:08;;;;;;;29.00;17.10;;;;;;;4.13;79.28;101427.58;105039;1254;74478;-67
2024/03/05 08:07:35;;;;;;;24.80;15.50;;;;;;;4.15;79.43;101434.86;104743;1260;138633;-67
2024/03/05 08:10:07;;;;;;;27.70;16.70;;;;;;;4.14;79.37;101436.30;104885;1260;71067;-66
2024/03/05 08:12:37;;;;;;;25.20;15.90;;;;;;;4.09;79.45;101436.41;105158;1256;138703;-66
2024/03/05 08:15:18;;;;;;;27.00;15.80;;;;;;;4.09;79.65;101438.67;105644;1254;61335;-66
2024/03/05 08:17:45;;;;;;;28.20;15.10;;;;;;;4.09;79.67;101446.34;109063;1254;74651;-66
2024/03/05 08:20:16;;;;;;;24.30;15.40;;;;;;;4.01;79.58;101447.73;105324;1257;138436;-67
2024/03/05 08:22:46;;;;;;;28.30;15.60;;;;;;;3.92;79.60;101450.46;105513;1255;72520;-66
2024/03/05 08:25:15;;;;;;;23.70;15.70;;;;;;;3.85;79.78;101456.63;104898;1258;138494;-67
2024/03/05 08:27:42;;;;;;;22.80;15.30;;;;;;;3.78;80.00;101449.38;105006;1255;61350;-66
2024/03/05 08:30:31;;;;;;;25.80;14.90;;;;;;;3.72;80.22;101451.95;104892;1257;138807;-66
2024/03/05 08:33:00;;;;;;;22.10;14.70;;;;;;;3.66;80.27;101452.98;106742;1255;66960;-66
2024/03/05 08:35:29;;;;;;;20.30;15.00;;;;;;;3.62;80.25;101456.55;105087;1258;73657;-66
2024/03/05 08:37:58;;;;;;;22.90;15.20;;;;;;;3.60;80.40;101459.86;104980;1256;138808;-67
2024/03/05 08:40:26;;;;;;;21.40;14.80;;;;;;;3.53;80.42;101466.17;104955;1260;61233;-67
2024/03/05 08:42:54;;;;;;;24.20;16.20;;;;;;;3.48;80.72;101462.21;104962;1256;138358;-67
2024/03/05 08:45:22;;;;;;;30.00;17.10;;;;;;;3.44;80.69;101460.95;104943;1255;65236;-67
2024/03/05 08:47:53;;;;;;;20.70;15.00;;;;;;;3.47;81.09;101457.32;107174;1258;71667;-67
2024/03/05 08:50:21;;;;;;;25.20;16.70;;;;;;;3.55;81.27;101456.60;104698;1258;138965;-67
2024/03/05 08:52:48;;;;;;;24.20;14.90;;;;;;;3.56;81.28;101456.85;104814;1254;61326;-67
2024/03/05 08:55:15;;;;;;;26.50;16.10;;;;;;;3.52;81.45;101447.23;105017;1257;138914;-67
2024/03/05 08:57:43;;;;;;;27.20;15.50;;;;;;;3.54;81.66;101447.53;106036;1257;67559;-67
2024/03/05 09:00:33;;;;;;;23.20;14.90;;;;;;;3.61;81.81;101451.47;105988;1254;139015;-67
2024/03/05 09:02:59;;;;;;;24.60;16.10;;;;;;;3.65;81.89;101447.21;104950;1257;61339;-67
2024/03/05 09:05:26;;;;;;;24.80;15.40;;;;;;;3.71;81.89;101448.61;105054;1256;61316;-67
2024/03/05 09:07:53;;;;;;;26.10;16.30;;;;;;;3.69;81.74;101442.27;104769;1261;138380;-67
2024/03/05 09:10:20;;;;;;;23.30;15.60;;;;;;;3.67;81.75;101441.55;105105;1254;67554;-67
2024/03/05 09:12:46;;;;;;;33.40;16.50;;;;;;;3.67;81.83;101441.23;104950;1254;138372;-67
2024/03/05 09:15:15;;;;;;;24.20;14.70;;;;;;;3.69;81.77;101443.80;105039;1255;61414;-66
2024/03/05 09:17:42;;;;;;;25.50;16.30;;;;;;;3.69;81.85;101442.61;105042;1256;61579;-66
2024/03/05 09:20:15;;;;;;;31.50;16.20;;;;;;;3.73;81.95;101445.80;104891;1258;138608;-66
2024/03/05 09:22:46;;;;;;;25.60;15.80;;;;;;;3.77;81.88;101438.71;104933;1257;66651;-67
2024/03/05 09:25:13;;;;;;;30.00;16.80;;;;;;;3.79;81.90;101444.27;104734;1254;138570;-67
2024/03/05 09:27:42;;;;;;;24.70;16.30;;;;;;;3.82;81.76;101438.17;106642;1254;61151;-67
2024/03/05 09:30:09;;;;;;;23.20;15.30;;;;;;;3.82;81.85;101440.27;106729;1257;138484;-65
2024/03/05 09:32:36;;;;;;;26.80;16.20;;;;;;;3.86;81.79;101440.17;105163;1255;75097;-66
2024/03/05 09:35:08;;;;;;;24.10;16.00;;;;;;;3.87;81.75;101444.10;104866;1257;65535;-66
2024/03/05 09:37:36;;;;;;;28.20;16.60;;;;;;;3.92;81.77;101442.80;105803;1256;138544;-67
2024/03/05 09:40:06;;;;;;;29.70;16.40;;;;;;;3.97;81.72;101439.29;105072;1255;61197;-66
2024/03/05 09:42:33;;;;;;;24.90;15.50;;;;;;;4.02;81.60;101441.38;105741;1255;138829;-66
2024/03/05 09:45:05;;;;;;;33.20;17.00;;;;;;;4.04;81.56;101441.34;104820;1256;74150;-66
2024/03/05 09:47:35;;;;;;;25.30;15.40;;;;;;;4.07;81.49;101437.98;105800;1256;65299;-66
2024/03/05 09:50:03;;;;;;;24.50;15.60;;;;;;;4.08;81.31;101440.01;104693;1254;139118;-65
2024/03/05 09:52:31;;;;;;;26.20;14.60;;;;;;;4.10;81.22;101435.42;105619;1256;61810;-65
2024/03/05 09:55:00;;;;;;;33.30;16.30;;;;;;;4.16;81.40;101430.55;104852;1256;138891;-66
2024/03/05 09:57:28;;;;;;;26.40;14.90;;;;;;;4.20;81.22;101432.71;106043;1258;72460;-66
2024/03/05 09:59:55;;;;;;;21.70;14.30;;;;;;;4.24;81.15;101427.59;105023;1256;67741;-63
2024/03/05 10:02:22;;;;;;;21.80;14.80;;;;;;;4.28;81.06;101433.27;104899;1254;138172;-62
2024/03/05 10:04:49;;;;;;;23.10;15.50;;;;;;;4.31;80.89;101429.22;104846;1258;61132;-62
2024/03/05 10:07:25;;;;;;;29.50;16.50;;;;;;;4.33;80.92;101433.34;105012;1259;138293;-62
2024/03/05 10:10:11;;;;;;;25.90;15.40;;;;;;;4.35;80.86;101428.46;104895;1256;74095;-62
2024/03/05 10:12:41;;;;;;;26.90;15.40;;;;;;;4.42;80.91;101429.73;109039;1254;138468;-62
2024/03/05 10:15:24;;;;;;;22.70;14.70;;;;;;;4.44;80.76;101431.24;109116;1255;72726;-63
2024/03/05 10:17:52;;;;;;;28.10;15.00;;;;;;;4.41;80.39;101430.40;109001;1255;60294;-63
2024/03/05 10:20:38;;;;;;;26.40;15.30;;;;;;;4.41;80.40;101435.59;108865;1254;139165;-63
2024/03/05 10:23:07;;;;;;;25.70;15.60;;;;;;;4.43;80.31;101439.34;109060;1254;73706;-63
2024/03/05 10:25:34;;;;;;;22.80;14.60;;;;;;;4.41;80.01;101441.81;108849;1254;138907;-63
2024/03/05 10:28:08;;;;;;;22.30;13.40;;;;;;;4.34;80.02;101439.86;109074;1254;71473;-63
2024/03/05 10:30:37;;;;;;;;;;;;;;;4.33;80.04;101441.54;109011;1255;138619;-63
2024/03/05 10:33:05;;;;;;;22.30;13.50;;;;;;;4.30;79.99;101439.25;109147;1253;60620;-63
2024/03/05 10:35:32;;;;;;;25.60;14.60;;;;;;;4.28;80.09;101442.83;109135;1254;73457;-63
2024/03/05 10:38:07;;;;;;;22.60;13.80;;;;;;;4.25;80.01;101442.58;108942;1253;138232;-63
2024/03/05 10:40:34;;;;;;;21.30;13.60;;;;;;;4.19;80.20;101443.98;109014;1254;72804;-63
2024/03/05 10:43:05;;;;;;;16.80;13.20;;;;;;;4.21;80.44;101445.64;109074;1254;138589;-66
2024/03/05 10:45:34;;;;;;;19.10;11.20;;;;;;;4.21;80.35;101450.38;106005;1254;61373;-62
2024/03/05 10:48:01;;;;;;;18.70;12.00;;;;;;;4.16;80.08;101452.45;109076;1255;138665;-63
2024/03/05 10:50:28;;;;;;;15.70;11.90;;;;;;;4.12;80.22;101447.35;108081;1254;64434;-62
2024/03/05 10:52:55;;;;;;;19.30;12.60;;;;;;;4.10;80.23;101446.39;108961;1254;73597;-63
2024/03/05 10:55:23;;;;;;;17.30;12.30;;;;;;;4.06;80.26;101448.23;107986;1255;138438;-62
2024/03/05 11:00:56;;;;;;;17.00;11.40;;;;;;;4.08;80.54;101449.02;108544;1262;138383;-63
2024/03/05 11:03:39;;;;;;;17.40;10.70;;;;;;;4.11;80.75;101446.79;108573;1262;66014;-63
2024/03/05 11:06:06;;;;;;;20.20;11.10;;;;;;;4.17;80.61;101449.04;106631;1260;139761;-62
2024/03/05 11:08:35;;;;;;;20.10;11.40;;;;;;;4.16;80.52;101446.39;108994;1254;59093;-62
2024/03/05 11:11:05;;;;;;;14.20;10.50;;;;;;;4.18;80.75;101441.86;109021;1254;60518;-62
2024/03/05 11:13:33;;;;;;;15.30;10.70;;;;;;;4.20;80.53;101444.92;108927;1254;138798;-62
2024/03/05 11:16:06;;;;;;;15.30;11.20;;;;;;;4.15;80.30;101442.52;108946;1258;63646;-62
2024/03/05 11:18:34;;;;;;;18.20;11.00;;;;;;;4.10;80.37;101440.98;109040;1254;138579;-62
2024/03/05 11:21:08;;;;;;;15.60;11.00;;;;;;;4.10;80.45;101444.77;108990;1255;59068;-62